Time;durP1;ratioP1;P1;durP2;ratioP2;P2;SDS_P1;SDS_P2;PMS_P1;PMS_P2;Temp;Humidity;BMP_temperature;BMP_pressure;BME280_temperature;BME280_humidity;BME280_pressure;Samples;Min_cycle;Max_cycle;Signal;HPM_P1;HPM_P2
2022/05/25 00:00:18;;;;;;;0.00;0.00;;;;;;;;;;5017638;28;20040;-80
2022/05/25 00:02:45;;;;;;;0.10;0.10;;;;;;;;;;5018656;28;20400;-80
2022/05/25 00:05:13;;;;;;;0.20;0.20;;;;;;;;;;5025914;28;21980;-80
2022/05/25 00:07:39;;;;;;;0.10;0.10;;;;;;;;;;5019810;28;20037;-77
2022/05/25 00:10:05;;;;;;;0.03;0.03;;;;;;;;;;5024399;28;20833;-80
2022/05/25 00:12:32;;;;;;;0.10;0.10;;;;;;;;;;5019761;28;20053;-78
2022/05/25 00:14:58;;;;;;;0.10;0.10;;;;;;;;;;5022125;28;20038;-78
2022/05/25 00:17:24;;;;;;;0.10;0.10;;;;;;;;;;5025126;28;20032;-78
2022/05/25 00:19:59;;;;;;;0.10;0.10;;;;;;;;;;5028091;28;20052;-77
2022/05/25 00:22:26;;;;;;;0.10;0.10;;;;;;;;;;5018297;28;20465;-78
2022/05/25 00:24:55;;;;;;;1.20;0.40;;;;;;;;;;5038799;28;20021;-78
2022/05/25 00:27:22;;;;;;;0.10;0.10;;;;;;;;;;5047158;28;20057;-78
2022/05/25 00:29:48;;;;;;;0.10;0.10;;;;;;;;;;5021943;28;20052;-78
2022/05/25 00:32:15;;;;;;;0.08;0.08;;;;;;;;;;5019661;28;20049;-80
2022/05/25 00:34:42;;;;;;;0.00;0.00;;;;;;;;;;5020617;28;20021;-80
2022/05/25 00:37:08;;;;;;;0.10;0.10;;;;;;;;;;5021356;28;20047;-80
2022/05/25 00:39:35;;;;;;;0.10;0.10;;;;;;;;;;5021676;28;20072;-80
2022/05/25 00:42:04;;;;;;;0.10;0.10;;;;;;;;;;5036903;28;20065;-81
2022/05/25 00:44:30;;;;;;;0.10;0.10;;;;;;;;;;5024140;28;20044;-79
2022/05/25 00:46:56;;;;;;;0.20;0.20;;;;;;;;;;5020106;28;20033;-80
2022/05/25 00:49:24;;;;;;;0.10;0.10;;;;;;;;;;5021815;28;20116;-80
2022/05/25 00:51:54;;;;;;;0.10;0.10;;;;;;;;;;5021288;28;20048;-80
2022/05/25 00:54:22;;;;;;;0.13;0.13;;;;;;;;;;5022701;28;20067;-80
2022/05/25 00:56:50;;;;;;;0.10;0.10;;;;;;;;;;5024971;28;20036;-79
2022/05/25 00:59:18;;;;;;;1.85;0.57;;;;;;;;;;5037586;28;20495;-80
2022/05/25 01:01:45;;;;;;;0.10;0.10;;;;;;;;;;5025894;28;20127;-80
2022/05/25 01:04:12;;;;;;;0.00;0.00;;;;;;;;;;5024036;28;20036;-80
2022/05/25 01:06:40;;;;;;;0.10;0.10;;;;;;;;;;5021636;28;20044;-80
2022/05/25 01:09:16;;;;;;;12.40;0.45;;;;;;;;;;5028472;28;20498;-79
2022/05/25 01:12:01;;;;;;;0.03;0.03;;;;;;;;;;5020024;28;20037;-81
2022/05/25 01:14:32;;;;;;;0.10;0.10;;;;;;;;;;5024879;28;20032;-80
2022/05/25 01:17:08;;;;;;;0.55;0.55;;;;;;;;;;5024390;28;20033;-77
2022/05/25 01:19:43;;;;;;;0.00;0.00;;;;;;;;;;5027032;28;20154;-76
2022/05/25 01:22:28;;;;;;;0.00;0.00;;;;;;;;;;5024658;28;20155;-78
2022/05/25 01:25:13;;;;;;;0.30;0.30;;;;;;;;;;5028115;28;20132;-79
2022/05/25 01:27:39;;;;;;;0.13;0.13;;;;;;;;;;5030809;28;20120;-79
2022/05/25 01:30:07;;;;;;;0.00;0.00;;;;;;;;;;5025599;28;20053;-78
2022/05/25 01:32:39;;;;;;;0.03;0.03;;;;;;;;;;5028292;28;20079;-79
2022/05/25 01:35:05;;;;;;;0.00;0.00;;;;;;;;;;5025416;28;20109;-78
2022/05/25 01:37:43;;;;;;;0.00;0.00;;;;;;;;;;5026407;28;20029;-78
2022/05/25 01:40:33;;;;;;;0.00;0.00;;;;;;;;;;5025473;28;20075;-78
2022/05/25 01:43:01;;;;;;;0.35;0.35;;;;;;;;;;5021250;28;20359;-78
2022/05/25 01:45:29;;;;;;;0.10;0.10;;;;;;;;;;5024777;28;20037;-78
2022/05/25 01:47:58;;;;;;;0.10;0.10;;;;;;;;;;5023237;28;21014;-79
2022/05/25 01:50:26;;;;;;;0.00;0.00;;;;;;;;;;5021104;28;20079;-78
2022/05/25 01:52:55;;;;;;;0.10;0.10;;;;;;;;;;5023955;28;20700;-77
2022/05/25 01:55:23;;;;;;;0.10;0.10;;;;;;;;;;5027102;28;20894;-78
2022/05/25 01:57:53;;;;;;;0.00;0.00;;;;;;;;;;5029638;28;20061;-76
2022/05/25 02:00:26;;;;;;;0.10;0.10;;;;;;;;;;5022951;28;20116;-76
2022/05/25 02:06:15;;;;;;;0.10;0.10;;;;;;;;;;5019154;28;20091;-85
2022/05/25 02:09:00;;;;;;;0.10;0.10;;;;;;;;;;4970509;28;20025;-80
2022/05/25 02:11:26;;;;;;;0.10;0.10;;;;;;;;;;4993886;28;21296;-80
2022/05/25 02:13:57;;;;;;;0.00;0.00;;;;;;;;;;4978100;28;20120;-79
2022/05/25 02:16:47;;;;;;;0.00;0.00;;;;;;;;;;4991470;28;20101;-79
2022/05/25 02:19:32;;;;;;;0.10;0.10;;;;;;;;;;4968238;28;20486;-78
2022/05/25 02:22:04;;;;;;;0.93;0.75;;;;;;;;;;4964183;28;20542;-78
2022/05/25 02:24:34;;;;;;;0.05;0.05;;;;;;;;;;4967301;28;20042;-78
2022/05/25 02:27:02;;;;;;;0.10;0.10;;;;;;;;;;4975803;28;20043;-79
2022/05/25 02:29:43;;;;;;;0.00;0.00;;;;;;;;;;4971466;28;20146;-78
2022/05/25 02:32:15;;;;;;;0.10;0.10;;;;;;;;;;4964291;28;20069;-78
2022/05/25 02:34:44;;;;;;;0.10;0.10;;;;;;;;;;4966999;28;20037;-77
2022/05/25 02:37:10;;;;;;;0.10;0.10;;;;;;;;;;4974066;28;20050;-78
2022/05/25 02:39:36;;;;;;;0.10;0.10;;;;;;;;;;4989892;28;20037;-78
2022/05/25 02:42:02;;;;;;;0.93;0.93;;;;;;;;;;5004550;28;20041;-78
2022/05/25 02:44:29;;;;;;;0.40;0.40;;;;;;;;;;5002403;28;20363;-78
2022/05/25 02:46:55;;;;;;;0.10;0.10;;;;;;;;;;4988656;28;20472;-78
2022/05/25 02:49:21;;;;;;;0.00;0.00;;;;;;;;;;4985815;28;20037;-77
2022/05/25 02:51:47;;;;;;;0.10;0.10;;;;;;;;;;5002778;28;20326;-78
2022/05/25 02:54:13;;;;;;;0.30;0.17;;;;;;;;;;5000469;28;20148;-78
2022/05/25 02:56:39;;;;;;;0.20;0.20;;;;;;;;;;5023113;28;20072;-77
2022/05/25 02:59:05;;;;;;;0.10;0.10;;;;;;;;;;5026311;28;20471;-77
2022/05/25 03:01:31;;;;;;;0.03;0.03;;;;;;;;;;5022540;28;20145;-77
2022/05/25 03:03:57;;;;;;;0.00;0.00;;;;;;;;;;5024444;28;20518;-78
2022/05/25 03:06:23;;;;;;;0.00;0.00;;;;;;;;;;5038655;28;20458;-80
2022/05/25 03:08:49;;;;;;;0.45;0.45;;;;;;;;;;5021381;28;20044;-78
2022/05/25 03:11:15;;;;;;;0.10;0.10;;;;;;;;;;5025578;28;20110;-78
2022/05/25 03:13:47;;;;;;;0.28;0.28;;;;;;;;;;5021026;28;20120;-78
2022/05/25 03:16:15;;;;;;;0.17;0.17;;;;;;;;;;5024089;28;20047;-79
2022/05/25 03:18:41;;;;;;;0.00;0.00;;;;;;;;;;5024881;28;20022;-78
2022/05/25 03:21:08;;;;;;;0.10;0.10;;;;;;;;;;5024584;28;20041;-77
2022/05/25 03:23:34;;;;;;;0.00;0.00;;;;;;;;;;5021377;28;20021;-77
2022/05/25 03:26:00;;;;;;;0.10;0.10;;;;;;;;;;5024592;28;20060;-75
2022/05/25 03:28:26;;;;;;;0.10;0.10;;;;;;;;;;5025996;28;20135;-75
2022/05/25 03:30:54;;;;;;;0.10;0.10;;;;;;;;;;5023284;28;20056;-76
2022/05/25 03:33:20;;;;;;;0.10;0.10;;;;;;;;;;5025629;28;20037;-76
2022/05/25 03:35:46;;;;;;;0.20;0.20;;;;;;;;;;5018515;28;20116;-76
2022/05/25 03:38:12;;;;;;;0.10;0.10;;;;;;;;;;5022554;28;20546;-76
2022/05/25 03:40:39;;;;;;;0.15;0.15;;;;;;;;;;5021717;28;20549;-76
2022/05/25 03:43:08;;;;;;;0.03;0.03;;;;;;;;;;5020164;28;20059;-76
2022/05/25 03:45:34;;;;;;;0.00;0.00;;;;;;;;;;5021408;28;20146;-76
2022/05/25 03:48:00;;;;;;;0.08;0.08;;;;;;;;;;5022524;28;20041;-79
2022/05/25 03:50:26;;;;;;;0.00;0.00;;;;;;;;;;5021389;28;20033;-78
2022/05/25 03:52:52;;;;;;;0.10;0.10;;;;;;;;;;5024560;28;20636;-77
2022/05/25 03:55:19;;;;;;;0.17;0.17;;;;;;;;;;5024533;28;20414;-78
2022/05/25 03:57:45;;;;;;;0.10;0.10;;;;;;;;;;5024981;28;20503;-78
2022/05/25 04:00:11;;;;;;;0.00;0.00;;;;;;;;;;5024830;28;20045;-77
2022/05/25 04:02:37;;;;;;;0.40;0.30;;;;;;;;;;5018228;28;20061;-78
2022/05/25 04:05:10;;;;;;;0.00;0.00;;;;;;;;;;5020910;28;20083;-78
2022/05/25 04:07:38;;;;;;;0.00;0.00;;;;;;;;;;5019833;28;20040;-77
2022/05/25 04:10:05;;;;;;;0.10;0.10;;;;;;;;;;5019625;28;20491;-77
2022/05/25 04:12:31;;;;;;;0.00;0.00;;;;;;;;;;5018460;28;20044;-78
2022/05/25 04:14:57;;;;;;;0.10;0.10;;;;;;;;;;5023126;28;20521;-78
2022/05/25 04:17:23;;;;;;;0.10;0.10;;;;;;;;;;5022646;28;20506;-78
2022/05/25 04:19:50;;;;;;;0.00;0.00;;;;;;;;;;5025132;28;20812;-78
2022/05/25 04:22:16;;;;;;;0.10;0.10;;;;;;;;;;5032764;28;20040;-79
2022/05/25 04:24:42;;;;;;;0.10;0.10;;;;;;;;;;5022389;28;20078;-79
2022/05/25 04:27:08;;;;;;;0.25;0.25;;;;;;;;;;5023138;28;20165;-79
2022/05/25 04:29:37;;;;;;;0.00;0.00;;;;;;;;;;5025167;28;20574;-79
2022/05/25 04:32:04;;;;;;;0.10;0.10;;;;;;;;;;5031187;28;20039;-78
2022/05/25 04:34:30;;;;;;;0.20;0.20;;;;;;;;;;5021941;28;20033;-78
2022/05/25 04:37:48;;;;;;;0.10;0.10;;;;;;;;;;5021887;28;20132;-78
2022/05/25 04:39:42;;;;;;;0.00;0.00;;;;;;;;;;5022592;28;20037;-76
2022/05/25 04:42:08;;;;;;;0.20;0.20;;;;;;;;;;5021303;28;20437;-76
2022/05/25 04:44:34;;;;;;;0.00;0.00;;;;;;;;;;5021589;28;20109;-76
2022/05/25 04:47:00;;;;;;;0.15;0.15;;;;;;;;;;5022763;28;20064;-75
2022/05/25 04:49:26;;;;;;;0.10;0.10;;;;;;;;;;5027707;28;20068;-75
2022/05/25 04:51:52;;;;;;;0.00;0.00;;;;;;;;;;5037421;28;20064;-75
2022/05/25 04:54:18;;;;;;;0.10;0.10;;;;;;;;;;5032755;28;20280;-76
2022/05/25 04:59:29;;;;;;;1.35;0.90;;;;;;;;;;5032898;28;20040;-77
2022/05/25 05:01:58;;;;;;;0.00;0.00;;;;;;;;;;5038320;28;20045;-76
2022/05/25 05:04:26;;;;;;;0.10;0.10;;;;;;;;;;5034301;28;20044;-76
2022/05/25 05:06:52;;;;;;;0.30;0.30;;;;;;;;;;5040201;28;20060;-78
2022/05/25 05:09:18;;;;;;;0.00;0.00;;;;;;;;;;5040936;28;20029;-76
2022/05/25 05:11:44;;;;;;;0.00;0.00;;;;;;;;;;5037782;28;20033;-82
2022/05/25 05:14:10;;;;;;;0.20;0.20;;;;;;;;;;5040199;28;20555;-82
2022/05/25 05:16:36;;;;;;;0.00;0.00;;;;;;;;;;5035563;28;20803;-82
2022/05/25 05:19:02;;;;;;;0.00;0.00;;;;;;;;;;5035481;28;20271;-82
2022/05/25 05:21:28;;;;;;;0.00;0.00;;;;;;;;;;5034497;28;20045;-78
2022/05/25 05:23:55;;;;;;;0.10;0.10;;;;;;;;;;5032849;28;20029;-77
2022/05/25 05:26:21;;;;;;;0.00;0.00;;;;;;;;;;5035959;28;20366;-76
2022/05/25 05:28:49;;;;;;;0.00;0.00;;;;;;;;;;5028908;28;20049;-77
2022/05/25 05:31:15;;;;;;;0.00;0.00;;;;;;;;;;5024608;28;20314;-77
2022/05/25 05:33:41;;;;;;;0.00;0.00;;;;;;;;;;5041145;28;20025;-76
2022/05/25 05:36:14;;;;;;;0.10;0.10;;;;;;;;;;5030870;28;20032;-77
2022/05/25 05:38:49;;;;;;;0.00;0.00;;;;;;;;;;5030860;28;20122;-77
2022/05/25 05:41:15;;;;;;;0.00;0.00;;;;;;;;;;5037974;28;20069;-77
2022/05/25 05:43:41;;;;;;;0.05;0.05;;;;;;;;;;5039166;28;20024;-77
2022/05/25 05:46:09;;;;;;;0.10;0.10;;;;;;;;;;5037660;28;20089;-79
2022/05/25 05:48:35;;;;;;;0.60;0.20;;;;;;;;;;5027981;28;20398;-79
2022/05/25 05:51:01;;;;;;;;;;;;;;;;;;5031767;28;20033;-79
2022/05/25 05:53:28;;;;;;;0.00;0.00;;;;;;;;;;5037653;28;20003;-79
2022/05/25 05:55:54;;;;;;;;;;;;;;;;;;5038610;28;20040;-79
2022/05/25 05:58:20;;;;;;;0.00;0.00;;;;;;;;;;5033158;28;20000;-79
2022/05/25 06:00:46;;;;;;;0.30;0.30;;;;;;;;;;5041498;28;20136;-78
2022/05/25 06:03:13;;;;;;;0.00;0.00;;;;;;;;;;5039208;28;20036;-80
2022/05/25 06:05:40;;;;;;;0.00;0.00;;;;;;;;;;5034180;28;20565;-79
2022/05/25 06:08:07;;;;;;;0.00;0.00;;;;;;;;;;5034199;28;20506;-78
2022/05/25 06:10:34;;;;;;;0.00;0.00;;;;;;;;;;5040392;28;20696;-77
2022/05/25 06:13:00;;;;;;;0.00;0.00;;;;;;;;;;5040683;28;20526;-80
2022/05/25 06:20:55;;;;;;;0.00;0.00;;;;;;;;;;5038600;28;20128;-79
2022/05/25 06:23:21;;;;;;;0.00;0.00;;;;;;;;;;5038925;28;20033;-77
2022/05/25 06:25:47;;;;;;;0.00;0.00;;;;;;;;;;5036785;28;20029;-78
2022/05/25 06:28:13;;;;;;;0.00;0.00;;;;;;;;;;5040124;28;20045;-81
2022/05/25 06:30:39;;;;;;;0.55;0.38;;;;;;;;;;5038264;28;20458;-78
2022/05/25 06:33:06;;;;;;;0.00;0.00;;;;;;;;;;5041077;28;20486;-78
2022/05/25 06:35:34;;;;;;;0.00;0.00;;;;;;;;;;5038463;28;20032;-78
2022/05/25 06:38:00;;;;;;;0.00;0.00;;;;;;;;;;5029769;28;20612;-78
2022/05/25 06:40:26;;;;;;;0.00;0.00;;;;;;;;;;5026127;28;20029;-78
2022/05/25 06:42:52;;;;;;;0.00;0.00;;;;;;;;;;5028801;28;20100;-79
2022/05/25 06:45:18;;;;;;;0.80;0.63;;;;;;;;;;5038908;28;20029;-80
2022/05/25 06:47:45;;;;;;;0.90;0.38;;;;;;;;;;5033891;28;20136;-80
2022/05/25 06:50:11;;;;;;;0.00;0.00;;;;;;;;;;5044920;28;20092;-80
2022/05/25 06:52:37;;;;;;;0.00;0.00;;;;;;;;;;5040855;28;20033;-79
2022/05/25 06:55:04;;;;;;;0.00;0.00;;;;;;;;;;5023315;28;20478;-80
2022/05/25 06:57:31;;;;;;;0.00;0.00;;;;;;;;;;5032077;28;20045;-81
2022/05/25 06:59:57;;;;;;;0.00;0.00;;;;;;;;;;5029110;28;20041;-80
2022/05/25 07:02:23;;;;;;;0.00;0.00;;;;;;;;;;5029904;28;20527;-79
2022/05/25 07:04:49;;;;;;;0.00;0.00;;;;;;;;;;5027972;28;20059;-79
2022/05/25 07:07:15;;;;;;;0.00;0.00;;;;;;;;;;5025433;28;20077;-79
2022/05/25 07:09:43;;;;;;;0.00;0.00;;;;;;;;;;5029159;28;20045;-79
2022/05/25 07:12:09;;;;;;;0.00;0.00;;;;;;;;;;5029185;28;20040;-79
2022/05/25 07:14:36;;;;;;;0.00;0.00;;;;;;;;;;5029252;28;20111;-79
2022/05/25 07:17:02;;;;;;;0.10;0.10;;;;;;;;;;5028962;28;20103;-79
2022/05/25 07:19:29;;;;;;;0.10;0.10;;;;;;;;;;5026335;28;20096;-79
2022/05/25 07:21:55;;;;;;;0.00;0.00;;;;;;;;;;5027688;28;20387;-79
2022/05/25 07:24:21;;;;;;;;;;;;;;;;;;5030706;28;20049;-88
2022/05/25 07:26:47;;;;;;;0.00;0.00;;;;;;;;;;5050185;28;19963;-88
2022/05/25 07:29:14;;;;;;;;;;;;;;;;;;5061352;28;20110;-88
2022/05/25 07:31:50;;;;;;;0.00;0.00;;;;;;;;;;5026963;28;19917;-87
2022/05/25 07:34:21;;;;;;;0.00;0.00;;;;;;;;;;5025816;28;20105;-87
2022/05/25 07:37:10;;;;;;;0.00;0.00;;;;;;;;;;5028731;28;20029;-88
2022/05/25 07:39:40;;;;;;;0.50;0.13;;;;;;;;;;5028659;28;20033;-87
2022/05/25 07:42:06;;;;;;;0.00;0.00;;;;;;;;;;5028963;28;20083;-87
2022/05/25 07:44:43;;;;;;;0.00;0.00;;;;;;;;;;5029361;28;20124;-88
2022/05/25 07:47:09;;;;;;;0.00;0.00;;;;;;;;;;5027706;28;20105;-88
2022/05/25 07:49:35;;;;;;;0.10;0.10;;;;;;;;;;5026645;28;20087;-88
2022/05/25 07:52:00;;;;;;;;;;;;;;;;;;5037157;28;20025;-87
2022/05/25 07:54:27;;;;;;;0.00;0.00;;;;;;;;;;5038905;28;20446;-88
2022/05/25 07:56:53;;;;;;;0.00;0.00;;;;;;;;;;5032413;28;20014;-87
2022/05/25 07:59:19;;;;;;;0.20;0.20;;;;;;;;;;5028794;28;20063;-88
2022/05/25 08:07:20;;;;;;;0.00;0.00;;;;;;;;;;5024853;28;20117;-88
2022/05/25 08:09:47;;;;;;;0.00;0.00;;;;;;;;;;5028001;28;20033;-88
2022/05/25 08:12:13;;;;;;;0.00;0.00;;;;;;;;;;5036389;28;20124;-87
2022/05/25 08:14:39;;;;;;;0.00;0.00;;;;;;;;;;5033977;28;20029;-87
2022/05/25 08:17:09;;;;;;;0.00;0.00;;;;;;;;;;5028628;28;20100;-87
2022/05/25 08:19:35;;;;;;;0.00;0.00;;;;;;;;;;5041131;28;20041;-87
2022/05/25 08:22:01;;;;;;;0.00;0.00;;;;;;;;;;5025969;28;20095;-88
2022/05/25 08:24:30;;;;;;;0.60;0.47;;;;;;;;;;5028648;28;20038;-87
2022/05/25 08:26:56;;;;;;;0.00;0.00;;;;;;;;;;5043698;28;20025;-87
2022/05/25 08:29:25;;;;;;;0.10;0.10;;;;;;;;;;5028166;28;20188;-87
2022/05/25 08:31:55;;;;;;;17.63;1.55;;;;;;;;;;5027698;28;20033;-87
2022/05/25 08:34:21;;;;;;;1.65;0.35;;;;;;;;;;5024010;28;20029;-87
2022/05/25 08:36:48;;;;;;;0.08;0.08;;;;;;;;;;5027647;28;20026;-88
2022/05/25 08:39:14;;;;;;;;;;;;;;;;;;5028814;28;20033;-87
2022/05/25 08:41:41;;;;;;;0.00;0.00;;;;;;;;;;5043371;28;19925;-87
2022/05/25 08:44:09;;;;;;;0.00;0.00;;;;;;;;;;5026040;28;20069;-87
2022/05/25 08:46:36;;;;;;;0.00;0.00;;;;;;;;;;5031253;28;20509;-80
2022/05/25 08:49:03;;;;;;;0.00;0.00;;;;;;;;;;5022769;28;20588;-80
2022/05/25 08:51:30;;;;;;;0.00;0.00;;;;;;;;;;5035451;28;20072;-80
2022/05/25 08:53:57;;;;;;;0.00;0.00;;;;;;;;;;5026484;28;20032;-79
2022/05/25 08:56:27;;;;;;;0.20;0.20;;;;;;;;;;5028238;28;20558;-79
2022/05/25 08:59:00;;;;;;;0.00;0.00;;;;;;;;;;5028045;28;20025;-79
2022/05/25 09:01:32;;;;;;;0.28;0.13;;;;;;;;;;5025304;28;20045;-79
2022/05/25 09:04:09;;;;;;;0.15;0.15;;;;;;;;;;5038091;28;20025;-79
2022/05/25 09:06:40;;;;;;;0.00;0.00;;;;;;;;;;5037860;28;20029;-78
2022/05/25 09:09:11;;;;;;;0.00;0.00;;;;;;;;;;5032953;28;20043;-79
2022/05/25 09:11:42;;;;;;;0.10;0.10;;;;;;;;;;5034881;28;20028;-79
2022/05/25 09:14:15;;;;;;;0.00;0.00;;;;;;;;;;5036744;28;20456;-79
2022/05/25 09:16:42;;;;;;;0.10;0.10;;;;;;;;;;5025263;28;20029;-79
2022/05/25 09:19:13;;;;;;;0.00;0.00;;;;;;;;;;5025169;28;20065;-79
2022/05/25 09:21:45;;;;;;;0.00;0.00;;;;;;;;;;5037825;28;20053;-79
2022/05/25 09:24:12;;;;;;;0.17;0.00;;;;;;;;;;5027401;28;20582;-79
2022/05/25 09:26:38;;;;;;;0.00;0.00;;;;;;;;;;5027923;28;20034;-79
2022/05/25 09:29:07;;;;;;;1.30;0.80;;;;;;;;;;5027045;28;20077;-79
2022/05/25 09:31:35;;;;;;;0.00;0.00;;;;;;;;;;5024216;28;20095;-78
2022/05/25 09:34:03;;;;;;;0.00;0.00;;;;;;;;;;5041657;28;20060;-79
2022/05/25 09:36:39;;;;;;;0.17;0.00;;;;;;;;;;5031226;28;20030;-79
2022/05/25 09:39:24;;;;;;;0.00;0.00;;;;;;;;;;5031590;28;20049;-79
2022/05/25 09:41:54;;;;;;;0.00;0.00;;;;;;;;;;5034753;28;20052;-87
2022/05/25 09:44:20;;;;;;;0.20;0.20;;;;;;;;;;5033964;28;20051;-86
2022/05/25 09:46:52;;;;;;;0.00;0.00;;;;;;;;;;5030270;28;20083;-86
2022/05/25 09:49:50;;;;;;;0.00;0.00;;;;;;;;;;5027258;28;20438;-87
2022/05/25 09:52:18;;;;;;;0.00;0.00;;;;;;;;;;5020765;28;20901;-86
2022/05/25 09:54:49;;;;;;;0.00;0.00;;;;;;;;;;5022834;28;20487;-87
2022/05/25 09:57:27;;;;;;;0.10;0.10;;;;;;;;;;5019873;28;20056;-87
2022/05/25 10:00:04;;;;;;;0.00;0.00;;;;;;;;;;5019857;28;20040;-86
2022/05/25 10:02:42;;;;;;;0.00;0.00;;;;;;;;;;5005019;28;20080;-86
2022/05/25 10:05:13;;;;;;;0.08;0.00;;;;;;;;;;5019416;28;20087;-85
2022/05/25 10:07:42;;;;;;;0.00;0.00;;;;;;;;;;5017814;28;20495;-87
2022/05/25 10:10:11;;;;;;;0.00;0.00;;;;;;;;;;5021558;28;20831;-86
2022/05/25 10:12:40;;;;;;;0.00;0.00;;;;;;;;;;5021215;28;20048;-86
2022/05/25 10:15:11;;;;;;;0.00;0.00;;;;;;;;;;5019152;28;20057;-87
2022/05/25 10:17:40;;;;;;;0.00;0.00;;;;;;;;;;5019145;28;20041;-86
2022/05/25 10:20:27;;;;;;;0.00;0.00;;;;;;;;;;5023113;28;20102;-86
2022/05/25 10:23:27;;;;;;;0.47;0.20;;;;;;;;;;5005397;28;20075;-78
2022/05/25 10:25:54;;;;;;;0.73;0.73;;;;;;;;;;4962603;28;20035;-78
2022/05/25 10:28:25;;;;;;;0.20;0.10;;;;;;;;;;4961004;28;20057;-78
2022/05/25 10:37:07;;;;;;;0.00;0.00;;;;;;;;;;4943527;28;20118;-79
2022/05/25 10:39:35;;;;;;;0.00;0.00;;;;;;;;;;4940593;28;20051;-77
2022/05/25 10:42:01;;;;;;;0.00;0.00;;;;;;;;;;4940509;28;20051;-77
2022/05/25 10:44:30;;;;;;;0.00;0.00;;;;;;;;;;4939957;28;20043;-77
2022/05/25 10:46:57;;;;;;;0.00;0.00;;;;;;;;;;4938929;28;20036;-77
2022/05/25 10:49:43;;;;;;;0.00;0.00;;;;;;;;;;4929939;29;20043;-77
2022/05/25 10:52:19;;;;;;;0.00;0.00;;;;;;;;;;4928261;29;20477;-77
2022/05/25 10:54:45;;;;;;;0.00;0.00;;;;;;;;;;4935439;28;20207;-79
2022/05/25 10:57:29;;;;;;;0.00;0.00;;;;;;;;;;4941841;29;20043;-77
2022/05/25 10:59:55;;;;;;;0.00;0.00;;;;;;;;;;4933175;29;20043;-76
2022/05/25 11:02:42;;;;;;;0.00;0.00;;;;;;;;;;4977500;28;20176;-76
2022/05/25 11:05:23;;;;;;;0.10;0.10;;;;;;;;;;5007143;28;20757;-77
2022/05/25 11:07:50;;;;;;;0.00;0.00;;;;;;;;;;4997336;28;20037;-77
2022/05/25 11:10:16;;;;;;;0.10;0.10;;;;;;;;;;4999085;28;20060;-77
2022/05/25 11:12:52;;;;;;;0.00;0.00;;;;;;;;;;5037713;28;20064;-77
2022/05/25 11:15:33;;;;;;;0.00;0.00;;;;;;;;;;5031644;28;20034;-77
2022/05/25 11:18:05;;;;;;;0.00;0.00;;;;;;;;;;5029215;28;20033;-77
2022/05/25 11:20:50;;;;;;;0.85;0.52;;;;;;;;;;5032954;28;20037;-77
2022/05/25 11:23:35;;;;;;;0.30;0.10;;;;;;;;;;5038269;28;20910;-76
2022/05/25 11:26:13;;;;;;;0.00;0.00;;;;;;;;;;5041563;28;20057;-76
2022/05/25 11:28:40;;;;;;;0.00;0.00;;;;;;;;;;5041681;28;20511;-76
2022/05/25 11:31:12;;;;;;;0.00;0.00;;;;;;;;;;5036705;28;20037;-76
2022/05/25 11:33:44;;;;;;;0.00;0.00;;;;;;;;;;5028658;28;20025;-75
2022/05/25 11:36:30;;;;;;;0.08;0.08;;;;;;;;;;5029117;28;20033;-75
2022/05/25 11:38:57;;;;;;;0.00;0.00;;;;;;;;;;5028182;28;20041;-76
2022/05/25 11:41:34;;;;;;;0.15;0.15;;;;;;;;;;5033646;28;20064;-76
2022/05/25 11:44:07;;;;;;;0.00;0.00;;;;;;;;;;5030557;28;20033;-76
2022/05/25 11:46:42;;;;;;;0.15;0.15;;;;;;;;;;5029181;28;20025;-76
2022/05/25 11:49:28;;;;;;;0.00;0.00;;;;;;;;;;5039350;28;20357;-76
2022/05/25 11:52:13;;;;;;;0.00;0.00;;;;;;;;;;5040204;28;20048;-76
2022/05/25 11:54:51;;;;;;;0.00;0.00;;;;;;;;;;5040416;28;20033;-76
2022/05/25 11:57:34;;;;;;;0.00;0.00;;;;;;;;;;5036398;28;20386;-76
2022/05/25 12:00:15;;;;;;;0.00;0.00;;;;;;;;;;5030595;28;20137;-75
2022/05/25 12:02:59;;;;;;;0.20;0.20;;;;;;;;;;5026830;28;20021;-75
2022/05/25 12:05:25;;;;;;;0.05;0.03;;;;;;;;;;5026634;28;20106;-76
2022/05/25 12:08:10;;;;;;;0.85;0.28;;;;;;;;;;5026290;28;20025;-75
2022/05/25 12:10:41;;;;;;;0.15;0.15;;;;;;;;;;5037406;28;20044;-75
2022/05/25 12:13:10;;;;;;;0.00;0.00;;;;;;;;;;5025241;28;20029;-76
2022/05/25 12:15:49;;;;;;;0.00;0.00;;;;;;;;;;5039408;28;20032;-76
2022/05/25 12:18:33;;;;;;;0.00;0.00;;;;;;;;;;5038183;28;20040;-76
2022/05/25 12:21:13;;;;;;;0.32;0.20;;;;;;;;;;5037377;28;20036;-75
2022/05/25 12:23:45;;;;;;;0.00;0.00;;;;;;;;;;5040756;28;20495;-93
2022/05/25 12:26:31;;;;;;;0.00;0.00;;;;;;;;;;5044681;28;20033;-92
2022/05/25 12:28:57;;;;;;;;;;;;;;;;;;5039112;28;20045;-89
2022/05/25 12:31:23;;;;;;;;;;;;;;;;;;5035934;28;19913;-83
2022/05/25 12:33:49;;;;;;;0.00;0.00;;;;;;;;;;5028616;28;19912;-92
2022/05/25 12:36:16;;;;;;;0.05;0.05;;;;;;;;;;5025852;28;20519;-83
2022/05/25 12:38:42;;;;;;;0.00;0.00;;;;;;;;;;5027956;28;20063;-82
2022/05/25 12:41:27;;;;;;;0.20;0.00;;;;;;;;;;5037846;28;20124;-83
2022/05/25 12:43:54;;;;;;;0.00;0.00;;;;;;;;;;5040097;28;20021;-86
2022/05/25 12:49:08;;;;;;;0.00;0.00;;;;;;;;;;5037905;28;20457;-85
2022/05/25 12:51:39;;;;;;;0.00;0.00;;;;;;;;;;5028247;28;20033;-90
2022/05/25 12:54:26;;;;;;;0.00;0.00;;;;;;;;;;5037478;28;20045;-91
2022/05/25 12:56:52;;;;;;;0.00;0.00;;;;;;;;;;5016640;28;20056;-90
2022/05/25 12:59:27;;;;;;;0.00;0.00;;;;;;;;;;5040891;28;20140;-94
2022/05/25 13:02:08;;;;;;;0.00;0.00;;;;;;;;;;5048764;28;20056;-94
2022/05/25 13:04:47;;;;;;;0.00;0.00;;;;;;;;;;5055475;28;20124;-96
2022/05/25 13:07:32;;;;;;;0.10;0.00;;;;;;;;;;5038654;28;20602;-92
2022/05/25 13:09:58;;;;;;;0.00;0.00;;;;;;;;;;5049606;28;20025;-93
2022/05/25 13:12:39;;;;;;;0.10;0.00;;;;;;;;;;5049509;28;20546;-93
2022/05/25 13:15:14;;;;;;;0.13;0.13;;;;;;;;;;5044751;28;21144;-88
2022/05/25 13:17:42;;;;;;;0.00;0.00;;;;;;;;;;5041821;28;20493;-88
2022/05/25 13:20:08;;;;;;;0.00;0.00;;;;;;;;;;5039690;28;20033;-88
2022/05/25 13:22:34;;;;;;;0.00;0.00;;;;;;;;;;5035975;28;20502;-79
2022/05/25 13:25:00;;;;;;;0.00;0.00;;;;;;;;;;5021906;28;20039;-79
2022/05/25 13:27:26;;;;;;;0.28;0.10;;;;;;;;;;5043078;28;20044;-80
2022/05/25 13:30:07;;;;;;;0.00;0.00;;;;;;;;;;5040626;28;20041;-79
2022/05/25 13:32:36;;;;;;;0.00;0.00;;;;;;;;;;5025410;28;20063;-79
2022/05/25 13:35:11;;;;;;;0.13;0.10;;;;;;;;;;5033284;28;20045;-80
2022/05/25 13:37:38;;;;;;;0.00;0.00;;;;;;;;;;5025766;28;20140;-79
2022/05/25 13:40:08;;;;;;;0.00;0.00;;;;;;;;;;5027161;28;20044;-79
2022/05/25 13:42:34;;;;;;;0.00;0.00;;;;;;;;;;5032612;28;20473;-79
2022/05/25 13:45:06;;;;;;;0.00;0.00;;;;;;;;;;5027738;28;20567;-79
2022/05/25 13:47:32;;;;;;;0.00;0.00;;;;;;;;;;5031081;28;20037;-79
2022/05/25 13:50:00;;;;;;;0.00;0.00;;;;;;;;;;5028070;28;20489;-79
2022/05/25 13:52:28;;;;;;;2.22;0.80;;;;;;;;;;5034409;28;20022;-78
2022/05/25 13:54:59;;;;;;;0.00;0.00;;;;;;;;;;5028572;28;20032;-79
2022/05/25 13:57:38;;;;;;;0.00;0.00;;;;;;;;;;5027318;28;20458;-79
2022/05/25 14:00:20;;;;;;;0.10;0.10;;;;;;;;;;5031054;28;20558;-79
2022/05/25 14:02:58;;;;;;;0.00;0.00;;;;;;;;;;5039090;28;20718;-79
2022/05/25 14:05:27;;;;;;;0.17;0.17;;;;;;;;;;5030882;28;20025;-79
2022/05/25 14:07:54;;;;;;;0.00;0.00;;;;;;;;;;5025256;28;20043;-79
2022/05/25 14:13:21;;;;;;;0.00;0.00;;;;;;;;;;5026142;28;20423;-79
2022/05/25 14:16:14;;;;;;;0.00;0.00;;;;;;;;;;5026615;28;20098;-79
2022/05/25 14:18:43;;;;;;;0.00;0.00;;;;;;;;;;5026708;28;20057;-79
2022/05/25 14:21:14;;;;;;;0.22;0.22;;;;;;;;;;5025165;28;20048;-79
2022/05/25 14:23:40;;;;;;;0.00;0.00;;;;;;;;;;5026751;28;20033;-88
2022/05/25 14:26:07;;;;;;;0.00;0.00;;;;;;;;;;5028047;28;20052;-88
2022/05/25 14:28:38;;;;;;;1.45;0.57;;;;;;;;;;5030153;28;20149;-88
2022/05/25 14:31:04;;;;;;;0.00;0.00;;;;;;;;;;5051678;28;20577;-89
2022/05/25 14:33:31;;;;;;;0.00;0.00;;;;;;;;;;5035945;28;20509;-90
2022/05/25 14:36:00;;;;;;;0.03;0.03;;;;;;;;;;5046604;28;20033;-86
2022/05/25 14:38:30;;;;;;;0.00;0.00;;;;;;;;;;5034631;28;20076;-89
2022/05/25 14:40:56;;;;;;;0.00;0.00;;;;;;;;;;5033615;28;20485;-90
2022/05/25 14:43:37;;;;;;;0.90;0.32;;;;;;;;;;5027132;28;20032;-88
2022/05/25 14:46:11;;;;;;;0.00;0.00;;;;;;;;;;5033524;28;20025;-89
2022/05/25 14:48:41;;;;;;;0.00;0.00;;;;;;;;;;5044806;28;20521;-85
2022/05/25 14:51:07;;;;;;;0.00;0.00;;;;;;;;;;5057732;28;20029;-86
2022/05/25 14:53:33;;;;;;;0.00;0.00;;;;;;;;;;5059684;28;20585;-85
2022/05/25 14:56:06;;;;;;;2.25;0.55;;;;;;;;;;5058848;28;20068;-86
2022/05/25 14:58:41;;;;;;;0.00;0.00;;;;;;;;;;5027211;28;20029;-85
2022/05/25 15:01:07;;;;;;;0.00;0.00;;;;;;;;;;5070897;28;20033;-86
2022/05/25 15:03:36;;;;;;;0.00;0.00;;;;;;;;;;5027754;28;20052;-85
2022/05/25 15:06:07;;;;;;;0.00;0.00;;;;;;;;;;5060586;28;20132;-85
2022/05/25 15:08:38;;;;;;;0.00;0.00;;;;;;;;;;5059513;28;20025;-86
2022/05/25 15:11:22;;;;;;;0.17;0.17;;;;;;;;;;5026515;28;20406;-86
2022/05/25 15:19:28;;;;;;;0.00;0.00;;;;;;;;;;5026356;28;20095;-85
2022/05/25 15:21:54;;;;;;;0.00;0.00;;;;;;;;;;5024538;28;20411;-85
2022/05/25 15:24:22;;;;;;;0.00;0.00;;;;;;;;;;5067463;28;20029;-85
2022/05/25 15:26:58;;;;;;;0.10;0.10;;;;;;;;;;5026187;28;20676;-85
2022/05/25 15:29:44;;;;;;;0.08;0.08;;;;;;;;;;5025054;28;20425;-85
2022/05/25 15:32:11;;;;;;;0.00;0.00;;;;;;;;;;5058569;28;20048;-85
2022/05/25 15:34:37;;;;;;;0.00;0.00;;;;;;;;;;5055671;28;20072;-85
2022/05/25 15:37:14;;;;;;;0.00;0.00;;;;;;;;;;5026617;28;21560;-85